Time;durP1;ratioP1;P1;durP2;ratioP2;P2;SDS_P1;SDS_P2;PMS_P1;PMS_P2;Temp;Humidity;BMP_temperature;BMP_pressure;BME280_temperature;BME280_humidity;BME280_pressure;Samples;Min_cycle;Max_cycle;Signal;HPM_P1;HPM_P2
2023/10/31 00:00:22;;;;;;;3.47;1.95;;;11.70;99.90;;;;;;5006182;28;20038;-49
2023/10/31 00:02:47;;;;;;;7.85;2.25;;;11.80;99.90;;;;;;5006067;28;20149;-51
2023/10/31 00:05:13;;;;;;;6.63;2.53;;;11.70;99.90;;;;;;5005034;28;20188;-50
2023/10/31 00:07:39;;;;;;;5.97;2.60;;;11.70;99.90;;;;;;5005600;28;20038;-48
2023/10/31 00:10:04;;;;;;;6.57;2.63;;;11.70;99.90;;;;;;5005500;28;20113;-51
2023/10/31 00:12:30;;;;;;;6.70;3.25;;;11.70;99.90;;;;;;5005926;28;20134;-48
2023/10/31 00:14:56;;;;;;;7.40;2.47;;;11.70;99.90;;;;;;5005975;28;20026;-47
2023/10/31 00:17:21;;;;;;;8.70;2.40;;;11.70;99.90;;;;;;5005599;28;20157;-48
2023/10/31 00:19:47;;;;;;;5.50;2.30;;;11.70;99.90;;;;;;5005835;28;20235;-48
2023/10/31 00:22:13;;;;;;;5.05;2.20;;;11.60;99.90;;;;;;5005808;28;20037;-51
2023/10/31 00:24:38;;;;;;;5.00;1.95;;;11.70;99.90;;;;;;5005781;28;20062;-51
2023/10/31 00:27:04;;;;;;;6.25;2.20;;;11.70;99.90;;;;;;5005796;28;20036;-51
2023/10/31 00:29:30;;;;;;;6.32;2.17;;;11.70;99.90;;;;;;5005483;28;20034;-51
2023/10/31 00:31:55;;;;;;;6.43;2.67;;;11.70;99.90;;;;;;5005768;28;20108;-51
2023/10/31 00:34:21;;;;;;;6.78;3.08;;;11.60;99.90;;;;;;5005768;28;20022;-51
2023/10/31 00:36:47;;;;;;;5.15;2.67;;;11.60;99.90;;;;;;5005827;28;20212;-50
2023/10/31 00:39:12;;;;;;;5.85;3.13;;;11.60;99.90;;;;;;5004651;28;20050;-51
2023/10/31 00:41:39;;;;;;;8.43;3.03;;;11.60;99.90;;;;;;5008040;28;20081;-51
2023/10/31 00:44:05;;;;;;;8.55;2.95;;;11.60;99.90;;;;;;5009178;28;20223;-48
2023/10/31 00:46:31;;;;;;;6.25;3.00;;;11.60;99.90;;;;;;5009262;28;20038;-48
2023/10/31 00:48:57;;;;;;;6.00;3.15;;;11.60;99.90;;;;;;5009115;28;20119;-47
2023/10/31 00:51:22;;;;;;;5.72;2.90;;;11.60;99.90;;;;;;5008865;28;20032;-47
2023/10/31 00:53:48;;;;;;;5.53;3.10;;;11.60;99.90;;;;;;5008952;28;20049;-47
2023/10/31 00:56:14;;;;;;;6.90;3.55;;;11.60;99.90;;;;;;5009098;28;20026;-49
2023/10/31 00:58:39;;;;;;;6.32;3.53;;;11.60;99.90;;;;;;5009269;28;20114;-49
2023/10/31 01:01:05;;;;;;;6.55;3.50;;;11.50;99.90;;;;;;5009059;28;20038;-50
2023/10/31 01:03:31;;;;;;;5.32;3.25;;;11.50;99.90;;;;;;5008906;28;20027;-50
2023/10/31 01:05:56;;;;;;;7.78;3.75;;;11.60;99.90;;;;;;5008823;28;20160;-48
2023/10/31 01:08:22;;;;;;;9.98;3.53;;;11.50;99.90;;;;;;5008870;28;20053;-50
2023/10/31 01:10:48;;;;;;;5.18;2.90;;;11.50;99.90;;;;;;5008409;28;20046;-48
2023/10/31 01:13:13;;;;;;;8.45;3.63;;;11.50;99.90;;;;;;5009127;28;20299;-49
2023/10/31 01:15:39;;;;;;;8.10;3.78;;;11.50;99.90;;;;;;5008899;28;20026;-50
2023/10/31 01:18:05;;;;;;;6.43;3.58;;;11.50;99.90;;;;;;5008578;28;20026;-49
2023/10/31 01:20:31;;;;;;;6.82;3.60;;;11.40;99.90;;;;;;5008668;28;20022;-50
2023/10/31 01:22:57;;;;;;;8.00;3.78;;;11.40;99.90;;;;;;5008569;28;20049;-50
2023/10/31 01:25:22;;;;;;;15.52;4.45;;;11.50;99.90;;;;;;5008236;28;20037;-49
2023/10/31 01:27:48;;;;;;;6.93;3.22;;;11.50;99.90;;;;;;5008541;28;20030;-49
2023/10/31 01:30:14;;;;;;;7.43;3.50;;;11.50;99.90;;;;;;5008007;28;20038;-50
2023/10/31 01:32:39;;;;;;;7.55;2.47;;;11.50;99.90;;;;;;5008932;28;20137;-49
2023/10/31 01:35:05;;;;;;;5.75;2.05;;;11.40;99.90;;;;;;5008452;28;20018;-48
2023/10/31 01:37:31;;;;;;;10.20;2.30;;;11.50;99.90;;;;;;5008319;28;20104;-47
2023/10/31 01:39:56;;;;;;;8.80;1.95;;;11.50;99.90;;;;;;5007161;28;20030;-49
2023/10/31 01:42:22;;;;;;;8.93;2.28;;;11.50;99.90;;;;;;5008196;28;20161;-47
2023/10/31 01:44:48;;;;;;;7.78;2.53;;;11.60;99.90;;;;;;5007795;28;20288;-47
2023/10/31 01:47:13;;;;;;;4.80;2.17;;;11.50;99.90;;;;;;5007203;28;20026;-48
2023/10/31 01:49:39;;;;;;;5.05;1.95;;;11.50;99.90;;;;;;5007841;28;20057;-50
2023/10/31 01:52:05;;;;;;;4.70;1.90;;;11.60;99.90;;;;;;5007084;28;20030;-49
2023/10/31 01:54:34;;;;;;;5.00;1.70;;;11.50;99.90;;;;;;4990896;28;20023;-48
2023/10/31 01:57:00;;;;;;;4.53;2.00;;;11.60;99.90;;;;;;5007027;28;20068;-47
2023/10/31 01:59:26;;;;;;;4.13;1.73;;;11.60;99.90;;;;;;5006971;28;20026;-50
2023/10/31 02:01:52;;;;;;;3.92;2.00;;;11.60;99.90;;;;;;5007680;28;20053;-48
2023/10/31 02:04:18;;;;;;;4.25;1.70;;;11.60;99.90;;;;;;5006889;28;20030;-49
2023/10/31 02:06:44;;;;;;;6.68;1.77;;;11.60;99.90;;;;;;5007885;28;20058;-48
2023/10/31 02:09:09;;;;;;;4.25;1.77;;;11.50;99.90;;;;;;5007683;28;20030;-48
2023/10/31 02:11:35;;;;;;;4.90;1.90;;;11.50;99.90;;;;;;5007393;28;20184;-48
2023/10/31 02:14:01;;;;;;;5.68;1.80;;;11.50;99.90;;;;;;5007473;28;20356;-50
2023/10/31 02:16:27;;;;;;;7.75;1.60;;;11.50;99.90;;;;;;5007357;28;20033;-51
2023/10/31 02:18:53;;;;;;;4.45;1.90;;;11.50;99.90;;;;;;5007682;28;20030;-51
2023/10/31 02:21:19;;;;;;;3.47;1.50;;;11.50;99.90;;;;;;5006532;28;20030;-51
2023/10/31 02:24:02;;;;;;;5.47;1.88;;;11.50;99.90;;;;;;5007297;28;20030;-51
2023/10/31 02:26:31;;;;;;;2.83;1.50;;;11.50;99.90;;;;;;5007610;28;20195;-51
2023/10/31 02:28:56;;;;;;;5.32;1.83;;;11.50;99.90;;;;;;5007346;28;20022;-49
2023/10/31 02:31:22;;;;;;;3.05;1.80;;;11.60;99.90;;;;;;5007252;28;20041;-50
2023/10/31 02:33:48;;;;;;;3.58;1.70;;;11.50;99.90;;;;;;5006148;28;20049;-48
2023/10/31 02:36:13;;;;;;;3.13;1.83;;;11.50;99.90;;;;;;5007087;28;20022;-47
2023/10/31 02:38:39;;;;;;;5.38;1.65;;;11.50;99.90;;;;;;5007173;28;20037;-48
2023/10/31 02:41:05;;;;;;;5.03;1.70;;;11.40;99.90;;;;;;5007193;28;20035;-47
2023/10/31 02:43:31;;;;;;;2.72;1.40;;;11.40;99.90;;;;;;5007006;28;20030;-48
2023/10/31 02:45:56;;;;;;;3.88;1.60;;;11.40;99.90;;;;;;5007339;28;20030;-48
2023/10/31 02:48:23;;;;;;;4.45;1.98;;;11.30;99.90;;;;;;5005889;28;20038;-47
2023/10/31 02:50:49;;;;;;;3.03;1.50;;;11.40;99.90;;;;;;5006928;28;20026;-51
2023/10/31 02:53:14;;;;;;;4.72;1.80;;;11.30;99.90;;;;;;5006982;28;20364;-51
2023/10/31 02:55:40;;;;;;;6.10;2.20;;;11.30;99.90;;;;;;5006808;28;20035;-51
2023/10/31 02:58:06;;;;;;;5.22;1.85;;;11.20;99.90;;;;;;5006712;28;20215;-51
2023/10/31 03:00:31;;;;;;;2.60;1.25;;;11.20;99.90;;;;;;5006769;28;20030;-51
2023/10/31 03:02:57;;;;;;;3.83;1.40;;;11.10;99.90;;;;;;5006127;28;20242;-51
2023/10/31 03:05:23;;;;;;;3.08;1.48;;;11.10;99.90;;;;;;5006399;28;20183;-51
2023/10/31 03:07:49;;;;;;;4.82;1.38;;;11.10;99.90;;;;;;5006652;28;20062;-51
2023/10/31 03:10:15;;;;;;;4.05;1.48;;;11.00;99.90;;;;;;5006458;28;20323;-51
2023/10/31 03:12:41;;;;;;;4.90;1.73;;;11.10;99.90;;;;;;5006601;28;20037;-51
2023/10/31 03:15:07;;;;;;;3.53;1.42;;;11.00;99.90;;;;;;5006569;28;20026;-51
2023/10/31 03:17:33;;;;;;;4.72;1.67;;;11.00;99.90;;;;;;5006647;28;20034;-51
2023/10/31 03:19:58;;;;;;;7.00;2.75;;;11.10;99.90;;;;;;5006369;28;20224;-51
2023/10/31 03:22:24;;;;;;;3.03;1.60;;;11.20;99.90;;;;;;5006480;28;20041;-51
2023/10/31 03:24:50;;;;;;;4.78;1.50;;;11.20;99.90;;;;;;5006555;28;20295;-51
2023/10/31 03:27:15;;;;;;;2.78;1.80;;;11.20;99.90;;;;;;5006443;28;20042;-52
2023/10/31 03:29:41;;;;;;;3.53;1.70;;;11.20;99.90;;;;;;5006452;28;20287;-51
2023/10/31 03:32:07;;;;;;;3.60;1.80;;;11.20;99.90;;;;;;5006480;28;20264;-51
2023/10/31 03:34:32;;;;;;;5.75;1.90;;;11.10;99.90;;;;;;5005832;28;20184;-48
2023/10/31 03:36:58;;;;;;;2.55;1.50;;;11.10;99.90;;;;;;5006265;28;20072;-48
2023/10/31 03:39:23;;;;;;;2.83;1.60;;;11.00;99.90;;;;;;5006118;28;20302;-50
2023/10/31 03:41:49;;;;;;;4.68;1.77;;;11.00;99.90;;;;;;5006433;28;20026;-47
2023/10/31 03:44:15;;;;;;;4.22;1.58;;;11.00;99.90;;;;;;5006152;28;20106;-49
2023/10/31 03:46:40;;;;;;;3.13;1.83;;;11.00;99.90;;;;;;5006194;28;20058;-50
2023/10/31 03:49:07;;;;;;;4.22;1.73;;;11.00;99.90;;;;;;5006151;28;20346;-51
2023/10/31 03:51:34;;;;;;;3.58;1.52;;;11.10;99.90;;;;;;5005934;28;20094;-50
2023/10/31 03:53:59;;;;;;;4.97;2.00;;;11.00;99.90;;;;;;5005249;28;20057;-50
2023/10/31 03:56:25;;;;;;;4.50;1.83;;;10.90;99.90;;;;;;5006154;28;20022;-51
2023/10/31 03:58:51;;;;;;;3.42;1.40;;;10.90;99.90;;;;;;5006111;28;20090;-51
2023/10/31 04:01:16;;;;;;;3.92;1.60;;;10.90;99.90;;;;;;5006068;28;20326;-51
2023/10/31 04:03:42;;;;;;;4.65;1.60;;;10.90;99.90;;;;;;5006016;28;20102;-51
2023/10/31 04:06:08;;;;;;;3.47;1.60;;;10.90;99.90;;;;;;5005543;28;20030;-51
2023/10/31 04:08:33;;;;;;;3.35;1.40;;;10.90;99.90;;;;;;5005086;28;20239;-51
2023/10/31 04:10:59;;;;;;;1.77;1.35;;;10.90;99.90;;;;;;5004625;28;20308;-48
2023/10/31 04:13:25;;;;;;;6.18;2.10;;;10.90;99.90;;;;;;5005837;28;20034;-50
2023/10/31 04:15:50;;;;;;;3.08;1.73;;;10.90;99.90;;;;;;5007239;28;20049;-48
2023/10/31 04:18:16;;;;;;;3.65;1.70;;;10.90;99.90;;;;;;5009753;28;20085;-50
2023/10/31 04:20:42;;;;;;;3.88;1.50;;;11.00;99.90;;;;;;5009708;28;20088;-48
2023/10/31 04:23:08;;;;;;;4.15;2.00;;;11.10;99.90;;;;;;5009691;28;20085;-49
2023/10/31 04:25:34;;;;;;;2.67;1.50;;;11.10;99.90;;;;;;5009457;28;20065;-49
2023/10/31 04:28:00;;;;;;;3.92;1.80;;;11.10;99.90;;;;;;5009562;28;20034;-48
2023/10/31 04:30:26;;;;;;;3.90;1.75;;;11.10;99.90;;;;;;5009506;28;20030;-50
2023/10/31 04:32:52;;;;;;;3.33;1.98;;;11.10;99.90;;;;;;5009649;28;20034;-48
2023/10/31 04:35:18;;;;;;;5.28;1.60;;;11.10;99.90;;;;;;5009545;28;20088;-48
2023/10/31 04:37:43;;;;;;;5.15;1.35;;;11.10;99.90;;;;;;5009006;28;20022;-50
2023/10/31 04:40:10;;;;;;;3.92;1.50;;;11.10;99.90;;;;;;5009445;28;20034;-50
2023/10/31 04:42:35;;;;;;;4.13;1.40;;;11.10;99.90;;;;;;5009412;28;20179;-51
2023/10/31 04:45:01;;;;;;;2.90;1.42;;;11.10;99.90;;;;;;5009272;28;20034;-50
2023/10/31 04:47:27;;;;;;;3.35;1.50;;;11.10;99.90;;;;;;5009293;28;20080;-47
2023/10/31 04:49:52;;;;;;;4.28;1.98;;;11.00;99.90;;;;;;5009443;28;20306;-47
2023/10/31 04:52:19;;;;;;;7.22;2.42;;;11.10;99.90;;;;;;5009108;28;20026;-50
2023/10/31 04:54:45;;;;;;;4.15;1.77;;;11.00;99.90;;;;;;5009199;28;20081;-48
2023/10/31 04:57:11;;;;;;;8.48;1.73;;;11.10;99.90;;;;;;5008668;28;20101;-51
2023/10/31 04:59:37;;;;;;;3.53;1.70;;;11.10;99.90;;;;;;5008789;28;20275;-51
2023/10/31 05:02:03;;;;;;;4.78;1.88;;;11.10;99.90;;;;;;5009043;28;20030;-51
2023/10/31 05:04:29;;;;;;;3.15;1.58;;;11.20;99.90;;;;;;5008900;28;20049;-50
2023/10/31 05:06:55;;;;;;;2.50;1.10;;;11.20;99.90;;;;;;5008090;28;20085;-50
2023/10/31 05:09:23;;;;;;;4.95;1.08;;;11.20;99.90;;;;;;5008460;28;20310;-50
2023/10/31 05:11:48;;;;;;;2.40;1.10;;;11.20;99.90;;;;;;5008493;28;20054;-50
2023/10/31 05:14:14;;;;;;;3.45;1.15;;;11.30;99.90;;;;;;5008234;28;20026;-49
2023/10/31 05:16:43;;;;;;;3.45;1.00;;;11.30;99.90;;;;;;5008963;28;20026;-52
2023/10/31 05:19:09;;;;;;;3.28;1.10;;;11.30;99.90;;;;;;5007759;28;20097;-51
2023/10/31 05:21:35;;;;;;;1.83;1.27;;;11.40;99.90;;;;;;4991422;28;20045;-51
2023/10/31 05:24:00;;;;;;;5.28;1.20;;;11.40;99.90;;;;;;5008422;28;20170;-50
2023/10/31 05:26:28;;;;;;;1.55;0.88;;;11.40;99.90;;;;;;5008439;28;20038;-50
2023/10/31 05:28:54;;;;;;;2.83;1.10;;;11.40;99.90;;;;;;5008060;28;20031;-51
2023/10/31 05:31:19;;;;;;;1.98;1.10;;;11.40;99.90;;;;;;5008610;28;20022;-51
2023/10/31 05:33:45;;;;;;;3.13;1.40;;;11.40;99.90;;;;;;5008428;28;20245;-48
2023/10/31 05:36:21;;;;;;;3.33;1.30;;;11.40;99.90;;;;;;5007310;28;20037;-50
2023/10/31 05:38:47;;;;;;;3.47;1.15;;;11.40;99.90;;;;;;5008425;28;20041;-48
2023/10/31 05:41:13;;;;;;;3.35;1.35;;;11.40;99.90;;;;;;5007387;28;20202;-49
2023/10/31 05:43:38;;;;;;;2.42;1.42;;;11.30;99.90;;;;;;5008204;28;20343;-51
2023/10/31 05:46:04;;;;;;;6.80;1.60;;;11.30;99.90;;;;;;5008560;28;20056;-50
2023/10/31 05:48:31;;;;;;;7.20;6.63;;;11.30;99.90;;;;;;5008075;28;20053;-47
2023/10/31 05:50:57;;;;;;;2.58;1.60;;;11.30;99.90;;;;;;5008056;28;20077;-49
2023/10/31 05:53:22;;;;;;;5.25;2.00;;;11.30;99.90;;;;;;5007730;28;20038;-48
2023/10/31 05:55:48;;;;;;;3.20;2.10;;;11.30;99.90;;;;;;5007797;28;20026;-48
2023/10/31 05:58:14;;;;;;;6.20;1.75;;;11.30;99.90;;;;;;5008116;28;20327;-48
2023/10/31 06:00:39;;;;;;;6.10;1.60;;;11.30;99.90;;;;;;5007997;28;20299;-47
2023/10/31 06:03:05;;;;;;;5.15;1.90;;;11.30;99.90;;;;;;5007816;28;20165;-47
2023/10/31 06:05:31;;;;;;;4.55;1.80;;;11.30;99.90;;;;;;5006755;28;20101;-48
2023/10/31 06:07:57;;;;;;;2.65;1.15;;;11.20;99.90;;;;;;5007824;28;20042;-47
2023/10/31 06:10:22;;;;;;;4.90;1.60;;;11.20;99.90;;;;;;5007296;28;20061;-48
2023/10/31 06:12:48;;;;;;;3.53;1.25;;;11.20;99.90;;;;;;5007154;28;20292;-48
2023/10/31 06:15:14;;;;;;;2.50;1.10;;;11.30;99.90;;;;;;5007589;28;20034;-49
2023/10/31 06:17:39;;;;;;;3.25;1.10;;;11.30;99.90;;;;;;5007520;28;20022;-47
2023/10/31 06:20:08;;;;;;;5.00;1.40;;;11.30;99.90;;;;;;5007374;28;20037;-50
2023/10/31 06:22:33;;;;;;;4.03;1.40;;;11.30;99.90;;;;;;4974456;28;20026;-48
2023/10/31 06:24:59;;;;;;;2.65;1.40;;;11.30;99.90;;;;;;5006413;28;20045;-50
2023/10/31 06:27:25;;;;;;;2.05;1.10;;;11.30;99.90;;;;;;5006907;28;20072;-48
2023/10/31 06:29:50;;;;;;;3.20;1.05;;;11.30;99.90;;;;;;5007405;28;20042;-48
2023/10/31 06:32:16;;;;;;;2.85;1.00;;;11.40;99.90;;;;;;5007113;28;20030;-48
2023/10/31 06:34:42;;;;;;;4.45;1.25;;;11.30;99.90;;;;;;5006342;28;20042;-50
2023/10/31 06:37:07;;;;;;;1.33;0.90;;;11.40;99.90;;;;;;5007258;28;20038;-50
2023/10/31 06:39:33;;;;;;;2.08;1.00;;;11.40;99.90;;;;;;5005521;28;20026;-50
2023/10/31 06:41:58;;;;;;;5.47;1.67;;;11.40;99.90;;;;;;5006998;28;20165;-48
2023/10/31 06:44:24;;;;;;;4.70;2.25;;;11.40;99.90;;;;;;5007076;28;20050;-48
2023/10/31 06:46:50;;;;;;;4.40;1.77;;;11.40;99.90;;;;;;5007230;28;20041;-49
2023/10/31 06:49:16;;;;;;;3.05;0.90;;;11.40;99.90;;;;;;5006031;28;20042;-49
2023/10/31 06:51:41;;;;;;;2.92;0.93;;;11.40;99.90;;;;;;5007005;28;20044;-47
2023/10/31 06:54:07;;;;;;;2.35;1.08;;;11.30;99.90;;;;;;5006775;28;20022;-48
2023/10/31 06:56:33;;;;;;;2.38;0.90;;;11.30;99.90;;;;;;5006941;28;20018;-47
2023/10/31 06:58:58;;;;;;;4.53;0.98;;;11.30;99.90;;;;;;5006293;28;20042;-47
2023/10/31 07:01:24;;;;;;;1.38;0.90;;;11.20;99.90;;;;;;5005606;28;20027;-50
2023/10/31 07:03:50;;;;;;;4.80;1.08;;;11.10;99.90;;;;;;5005766;28;20088;-49
2023/10/31 07:06:15;;;;;;;2.70;0.82;;;11.10;99.90;;;;;;5006834;28;20191;-49
2023/10/31 07:08:41;;;;;;;2.35;0.95;;;11.10;99.90;;;;;;5006640;28;20037;-50
2023/10/31 07:11:07;;;;;;;2.35;1.05;;;11.10;99.90;;;;;;5005310;28;20050;-49
2023/10/31 07:13:32;;;;;;;2.92;0.90;;;11.10;99.90;;;;;;5006601;28;20239;-48
2023/10/31 07:15:58;;;;;;;1.45;0.80;;;11.10;99.90;;;;;;5005637;28;20092;-48
2023/10/31 07:18:24;;;;;;;9.30;4.32;;;11.10;99.90;;;;;;5006431;28;20268;-49
2023/10/31 07:20:49;;;;;;;14.55;4.55;;;11.10;99.90;;;;;;5006478;28;20303;-50
2023/10/31 07:23:15;;;;;;;4.40;2.10;;;11.10;99.90;;;;;;5006516;28;20195;-50
2023/10/31 07:25:41;;;;;;;4.28;1.67;;;11.10;99.90;;;;;;5006266;28;20173;-48
2023/10/31 07:28:07;;;;;;;1.63;1.00;;;11.00;99.90;;;;;;5006228;28;20061;-47
2023/10/31 07:30:32;;;;;;;1.67;0.90;;;11.00;99.90;;;;;;5006183;28;20030;-48
2023/10/31 07:32:58;;;;;;;5.65;2.30;;;11.00;99.90;;;;;;5006196;28;20014;-47
2023/10/31 07:35:24;;;;;;;8.15;2.92;;;11.00;99.90;;;;;;5006185;28;20049;-48
2023/10/31 07:37:49;;;;;;;5.82;1.95;;;11.10;99.90;;;;;;5006241;28;20031;-47
2023/10/31 07:40:15;;;;;;;3.85;1.70;;;11.10;99.90;;;;;;5006177;28;20025;-48
2023/10/31 07:42:41;;;;;;;3.53;1.40;;;11.10;99.90;;;;;;5005978;28;20101;-47
2023/10/31 07:45:07;;;;;;;3.17;1.10;;;11.10;99.90;;;;;;5005504;28;20296;-48
2023/10/31 07:47:32;;;;;;;5.47;1.58;;;11.10;99.90;;;;;;5005780;28;20054;-47
2023/10/31 07:49:59;;;;;;;3.95;1.30;;;11.10;99.90;;;;;;5005305;28;20049;-49
2023/10/31 07:52:24;;;;;;;2.05;1.20;;;11.10;99.90;;;;;;5005817;28;20023;-50
2023/10/31 07:54:50;;;;;;;4.25;1.23;;;11.20;99.90;;;;;;5006180;28;20330;-48
2023/10/31 07:57:15;;;;;;;3.55;1.27;;;11.10;99.90;;;;;;5005264;28;20046;-48
2023/10/31 07:59:41;;;;;;;2.40;1.20;;;11.10;99.90;;;;;;5005828;28;20022;-48
2023/10/31 08:02:07;;;;;;;3.85;1.33;;;11.10;99.90;;;;;;5005477;28;20041;-49
2023/10/31 08:04:32;;;;;;;1.80;1.00;;;11.10;99.90;;;;;;5005831;28;20092;-47
2023/10/31 08:06:58;;;;;;;1.00;0.70;;;11.10;99.90;;;;;;5005895;28;20202;-47
2023/10/31 08:09:24;;;;;;;2.17;1.27;;;11.10;99.90;;;;;;5005566;28;20053;-47
2023/10/31 08:11:49;;;;;;;2.35;0.80;;;11.10;99.90;;;;;;5004545;28;20084;-49
2023/10/31 08:14:15;;;;;;;1.75;0.80;;;11.10;99.90;;;;;;5005653;28;20026;-49
2023/10/31 08:16:44;;;;;;;1.40;0.90;;;11.20;99.90;;;;;;5004578;28;20208;-47
2023/10/31 08:19:10;;;;;;;3.67;1.00;;;11.20;99.90;;;;;;5004870;28;20058;-48
2023/10/31 08:21:38;;;;;;;3.78;1.17;;;11.20;99.90;;;;;;5005533;28;20030;-49
2023/10/31 08:24:04;;;;;;;4.60;2.22;;;11.20;99.90;;;;;;5005554;28;20033;-48
2023/10/31 08:26:31;;;;;;;5.25;2.08;;;11.30;99.90;;;;;;5005788;28;20406;-48
2023/10/31 08:28:56;;;;;;;2.78;1.45;;;11.40;99.90;;;;;;5005799;28;20081;-48
2023/10/31 08:31:22;;;;;;;8.70;1.10;;;11.50;99.90;;;;;;5005380;28;20085;-49
2023/10/31 08:33:48;;;;;;;1.98;1.05;;;11.40;99.90;;;;;;5004453;28;20089;-51
2023/10/31 08:36:13;;;;;;;1.58;0.80;;;11.40;99.90;;;;;;5005530;28;20026;-51
2023/10/31 08:38:39;;;;;;;3.45;1.17;;;11.50;99.90;;;;;;4988462;28;20022;-50
2023/10/31 08:41:05;;;;;;;2.63;1.10;;;11.70;99.90;;;;;;5004669;28;20094;-51
2023/10/31 08:43:31;;;;;;;1.88;1.00;;;11.80;99.90;;;;;;4988288;28;20034;-48
2023/10/31 08:45:56;;;;;;;2.08;1.00;;;12.00;99.90;;;;;;5005225;28;20136;-51
2023/10/31 08:48:22;;;;;;;2.55;0.98;;;12.10;99.90;;;;;;5003974;28;20058;-52
2023/10/31 08:50:48;;;;;;;2.25;1.38;;;12.10;99.90;;;;;;5004934;28;20042;-52
2023/10/31 08:53:14;;;;;;;2.67;1.10;;;12.10;99.90;;;;;;5004408;28;20034;-51
2023/10/31 08:55:40;;;;;;;2.03;0.90;;;12.00;99.90;;;;;;5005444;28;20030;-49
2023/10/31 08:58:05;;;;;;;5.35;3.03;;;11.90;99.90;;;;;;5005470;28;20037;-49
2023/10/31 09:00:31;;;;;;;3.53;1.45;;;11.90;99.90;;;;;;5005221;28;20030;-48
2023/10/31 09:02:57;;;;;;;2.67;1.10;;;11.90;99.90;;;;;;5008532;28;20026;-51
2023/10/31 09:05:22;;;;;;;3.28;1.50;;;11.80;99.90;;;;;;5008404;28;20026;-50
2023/10/31 09:07:48;;;;;;;4.80;1.55;;;11.80;99.90;;;;;;5007665;28;20101;-50
2023/10/31 09:10:14;;;;;;;13.65;5.00;;;11.70;99.90;;;;;;5007373;28;20054;-52
2023/10/31 09:12:39;;;;;;;7.70;3.15;;;11.70;99.90;;;;;;5008642;28;20030;-49
2023/10/31 09:15:06;;;;;;;7.72;3.50;;;11.70;99.90;;;;;;5008698;28;20310;-52
2023/10/31 09:17:31;;;;;;;8.25;3.30;;;11.70;99.90;;;;;;5007752;28;20106;-52
2023/10/31 09:19:57;;;;;;;8.45;3.50;;;11.80;99.90;;;;;;5008400;28;20041;-52
2023/10/31 09:22:23;;;;;;;8.38;3.47;;;11.90;99.90;;;;;;5008488;28;20339;-52
2023/10/31 09:24:48;;;;;;;5.00;1.92;;;11.90;99.90;;;;;;5008347;28;20042;-53
2023/10/31 09:27:14;;;;;;;5.68;2.42;;;11.90;99.90;;;;;;5008412;28;20026;-52
2023/10/31 09:29:40;;;;;;;9.48;3.83;;;12.00;99.90;;;;;;5008177;28;20134;-51
2023/10/31 09:32:06;;;;;;;6.90;2.38;;;12.10;99.90;;;;;;5007315;28;20030;-51
2023/10/31 09:34:32;;;;;;;6.28;2.88;;;12.20;99.90;;;;;;4990948;28;20235;-51
2023/10/31 09:36:58;;;;;;;9.35;3.70;;;12.20;99.90;;;;;;5007010;28;20046;-50
2023/10/31 09:39:24;;;;;;;9.20;4.05;;;12.20;99.90;;;;;;5008051;28;20034;-52
2023/10/31 09:41:49;;;;;;;8.23;3.78;;;12.20;99.90;;;;;;5007670;28;20093;-51
2023/10/31 09:44:15;;;;;;;10.27;4.40;;;12.30;99.90;;;;;;5007944;28;20042;-51
2023/10/31 09:46:41;;;;;;;10.00;4.90;;;12.30;99.90;;;;;;5006723;28;20047;-51
2023/10/31 09:49:08;;;;;;;10.63;4.95;;;12.40;99.90;;;;;;5007854;28;20039;-52
2023/10/31 09:51:33;;;;;;;6.53;3.17;;;12.50;99.90;;;;;;5007529;28;20034;-50
2023/10/31 09:53:59;;;;;;;9.23;5.05;;;12.70;99.90;;;;;;5006503;28;20022;-52
2023/10/31 09:56:25;;;;;;;12.05;5.60;;;13.00;99.90;;;;;;5006507;28;20035;-51
2023/10/31 09:58:51;;;;;;;7.78;3.95;;;13.30;99.90;;;;;;5007982;28;20092;-52
2023/10/31 10:01:17;;;;;;;6.90;4.07;;;13.80;99.90;;;;;;5007769;28;20030;-51
2023/10/31 10:03:43;;;;;;;6.32;3.15;;;14.30;99.90;;;;;;5007462;28;20029;-51
2023/10/31 10:06:09;;;;;;;6.72;3.55;;;14.90;99.90;;;;;;4974095;28;20061;-50
2023/10/31 10:08:38;;;;;;;5.20;2.20;;;16.00;99.90;;;;;;5007459;28;20220;-52
2023/10/31 10:11:05;;;;;;;6.85;2.70;;;16.30;99.90;;;;;;5006882;28;20050;-52
2023/10/31 10:13:30;;;;;;;5.03;2.22;;;16.00;99.90;;;;;;5006525;28;20022;-51
2023/10/31 10:15:56;;;;;;;4.47;1.15;;;16.00;99.90;;;;;;5006423;28;20049;-51
2023/10/31 10:18:29;;;;;;;6.45;1.92;;;16.80;99.90;;;;;;5007303;28;20072;-52
2023/10/31 10:20:58;;;;;;;5.22;2.05;;;17.30;99.90;;;;;;5006092;28;20113;-52
2023/10/31 10:23:25;;;;;;;;;;;16.00;99.90;;;;;;5007790;28;20034;-51
2023/10/31 10:25:51;;;;;;;5.55;2.08;;;15.30;99.90;;;;;;5007168;28;19914;-52
2023/10/31 10:28:19;;;;;;;6.45;2.63;;;14.90;99.90;;;;;;5006991;28;20030;-52
2023/10/31 10:30:47;;;;;;;5.93;2.95;;;15.00;99.90;;;;;;5006043;28;20033;-51
2023/10/31 10:33:12;;;;;;;7.95;3.80;;;15.20;99.90;;;;;;5007030;28;20030;-50
2023/10/31 10:35:38;;;;;;;4.57;2.78;;;15.40;99.90;;;;;;5006722;28;20057;-51
2023/10/31 10:38:05;;;;;;;1.83;1.10;;;15.80;99.90;;;;;;5005652;28;20022;-51
2023/10/31 10:40:31;;;;;;;3.45;1.40;;;16.40;99.90;;;;;;5006939;28;20037;-53
2023/10/31 10:42:59;;;;;;;3.75;1.52;;;16.90;99.90;;;;;;5006946;28;20038;-52
2023/10/31 10:45:25;;;;;;;7.10;1.77;;;17.00;99.90;;;;;;5006144;28;20045;-52
2023/10/31 10:47:50;;;;;;;2.83;1.27;;;16.00;99.90;;;;;;5005968;28;20034;-51
2023/10/31 10:50:20;;;;;;;2.17;1.00;;;15.20;99.90;;;;;;5005595;28;20288;-52
2023/10/31 10:52:50;;;;;;;4.75;1.60;;;14.70;99.90;;;;;;5006186;28;20183;-51
2023/10/31 10:55:23;;;;;;;2.67;1.30;;;14.40;99.90;;;;;;5006634;28;20213;-51
2023/10/31 10:58:17;;;;;;;2.80;1.05;;;14.20;99.90;;;;;;5005681;28;20029;-51
2023/10/31 11:00:43;;;;;;;3.38;1.15;;;14.00;99.90;;;;;;5006533;28;20122;-51
2023/10/31 11:03:09;;;;;;;4.03;1.45;;;14.10;99.90;;;;;;4989410;28;20287;-51
2023/10/31 11:05:35;;;;;;;3.83;2.10;;;14.60;99.90;;;;;;5005333;28;20030;-50
2023/10/31 11:08:00;;;;;;;2.38;1.20;;;15.80;99.90;;;;;;5005182;28;20038;-51
2023/10/31 11:10:28;;;;;;;3.67;1.45;;;17.60;99.90;;;;;;5005456;28;20066;-49
2023/10/31 11:12:53;;;;;;;4.70;1.60;;;17.70;99.90;;;;;;5006339;28;20045;-48
2023/10/31 11:15:19;;;;;;;5.72;2.00;;;16.70;99.90;;;;;;5006417;28;20022;-49
2023/10/31 11:17:46;;;;;;;5.90;1.90;;;16.50;99.90;;;;;;5005203;28;20056;-52
2023/10/31 11:20:14;;;;;;;2.28;1.20;;;18.10;99.90;;;;;;5004942;28;20071;-53
2023/10/31 11:22:40;;;;;;;2.72;1.10;;;19.00;99.90;;;;;;4989084;28;20080;-51
2023/10/31 11:25:10;;;;;;;0.80;0.65;;;19.10;99.90;;;;;;5006050;28;20049;-52
2023/10/31 11:27:36;;;;;;;4.80;1.60;;;19.00;97.90;;;;;;5005848;28;20030;-52
2023/10/31 11:30:05;;;;;;;3.58;1.20;;;18.80;99.90;;;;;;5005083;28;20191;-52
2023/10/31 11:32:32;;;;;;;2.65;1.20;;;18.70;99.90;;;;;;5005969;28;20053;-51
2023/10/31 11:34:57;;;;;;;2.10;1.10;;;18.20;99.90;;;;;;5006127;28;20032;-52
2023/10/31 11:37:31;;;;;;;5.20;1.30;;;18.20;99.90;;;;;;5004683;28;20046;-52
2023/10/31 11:40:22;;;;;;;4.53;2.78;;;17.10;99.90;;;;;;5005891;28;20194;-50
2023/10/31 11:42:56;;;;;;;4.13;1.40;;;16.30;99.90;;;;;;5005566;28;20037;-50
2023/10/31 11:45:27;;;;;;;2.70;1.05;;;18.20;99.90;;;;;;5004572;28;20215;-53
2023/10/31 11:47:53;;;;;;;1.58;0.90;;;19.40;99.90;;;;;;5005646;28;20175;-53
2023/10/31 11:50:18;;;;;;;2.38;0.88;;;21.10;97.00;;;;;;5005521;28;20046;-52
2023/10/31 11:52:44;;;;;;;2.22;1.30;;;20.20;95.00;;;;;;5005231;28;20114;-52
2023/10/31 11:55:10;;;;;;;6.47;1.75;;;18.20;99.90;;;;;;5004690;28;20082;-52
2023/10/31 11:57:36;;;;;;;5.25;1.52;;;17.10;99.90;;;;;;5004786;28;20022;-52
2023/10/31 12:00:07;;;;;;;4.30;2.33;;;16.30;99.90;;;;;;5005550;28;20030;-53
2023/10/31 12:02:33;;;;;;;6.90;1.65;;;15.90;99.90;;;;;;5004580;28;20176;-51
2023/10/31 12:05:17;;;;;;;3.72;1.48;;;16.00;99.90;;;;;;5004478;28;20064;-49
2023/10/31 12:07:43;;;;;;;4.43;1.83;;;16.00;99.90;;;;;;5005289;28;20085;-52
2023/10/31 12:10:09;;;;;;;1.80;1.33;;;16.00;99.90;;;;;;5004212;28;20062;-49
2023/10/31 12:12:35;;;;;;;2.85;1.38;;;16.30;99.90;;;;;;5004618;28;20306;-50
2023/10/31 12:15:08;;;;;;;3.40;1.20;;;17.00;99.90;;;;;;5005039;28;20035;-50
2023/10/31 12:17:34;;;;;;;4.15;1.75;;;17.30;99.90;;;;;;5005474;28;20096;-47
2023/10/31 12:20:07;;;;;;;2.08;1.17;;;17.50;99.90;;;;;;5005214;28;20078;-50
2023/10/31 12:22:33;;;;;;;2.70;1.30;;;16.30;99.90;;;;;;5005485;28;20039;-50
2023/10/31 12:25:08;;;;;;;2.75;1.23;;;16.00;99.90;;;;;;5005410;28;20034;-50
2023/10/31 12:27:47;;;;;;;2.90;1.13;;;16.30;99.90;;;;;;5005364;28;20030;-50
2023/10/31 12:30:17;;;;;;;3.13;1.50;;;17.50;99.90;;;;;;5005241;28;20022;-51
2023/10/31 12:32:43;;;;;;;2.65;1.50;;;19.50;98.70;;;;;;5005478;28;20314;-51
2023/10/31 12:35:16;;;;;;;2.22;1.33;;;20.90;94.40;;;;;;5004540;28;20026;-50
2023/10/31 12:37:46;;;;;;;3.72;1.35;;;21.60;83.50;;;;;;5006941;28;20018;-52
2023/10/31 12:40:17;;;;;;;4.38;2.80;;;20.50;88.10;;;;;;5009107;28;20344;-50
2023/10/31 12:42:43;;;;;;;4.57;2.20;;;19.00;92.00;;;;;;5009050;28;20154;-51